sensor_id;sensor_type;location;lat;lon;timestamp;pressure;altitude;pressure_sealevel;temperature;humidity
22649;BME280;11491;41.942;24.220;2023-05-07T00:01:13;90165.16;;;8.44;90.00
22649;BME280;11491;41.942;24.220;2023-05-07T00:03:40;90163.72;;;8.47;89.81
22649;BME280;11491;41.942;24.220;2023-05-07T00:06:08;90166.72;;;8.45;89.59
22649;BME280;11491;41.942;24.220;2023-05-07T00:08:38;90166.47;;;8.59;89.01
22649;BME280;11491;41.942;24.220;2023-05-07T00:11:04;90148.53;;;8.47;88.37
22649;BME280;11491;41.942;24.220;2023-05-07T00:13:31;90173.38;;;8.60;88.43
22649;BME280;11491;41.942;24.220;2023-05-07T00:16:00;90162.97;;;8.67;87.52
22649;BME280;11491;41.942;24.220;2023-05-07T00:18:27;90169.84;;;8.68;87.11
22649;BME280;11491;41.942;24.220;2023-05-07T00:20:54;90164.84;;;8.67;87.37
22649;BME280;11491;41.942;24.220;2023-05-07T00:23:23;90156.97;;;8.49;87.90
22649;BME280;11491;41.942;24.220;2023-05-07T00:25:49;90162.44;;;8.53;88.08
22649;BME280;11491;41.942;24.220;2023-05-07T00:28:16;90160.88;;;8.52;88.23
22649;BME280;11491;41.942;24.220;2023-05-07T00:30:43;90160.44;;;8.50;88.97
22649;BME280;11491;41.942;24.220;2023-05-07T00:33:10;90168.44;;;8.50;89.70
22649;BME280;11491;41.942;24.220;2023-05-07T00:35:36;90176.41;;;8.50;89.92
22649;BME280;11491;41.942;24.220;2023-05-07T00:38:03;90184.34;;;8.58;89.61
22649;BME280;11491;41.942;24.220;2023-05-07T00:40:31;90178.81;;;8.63;89.96
22649;BME280;11491;41.942;24.220;2023-05-07T00:42:58;90181.16;;;8.65;90.14
22649;BME280;11491;41.942;24.220;2023-05-07T00:45:26;90184.09;;;8.72;89.76
22649;BME280;11491;41.942;24.220;2023-05-07T00:47:54;90173.44;;;8.72;88.68
22649;BME280;11491;41.942;24.220;2023-05-07T00:50:21;90189.44;;;8.72;88.76
22649;BME280;11491;41.942;24.220;2023-05-07T00:52:48;90187.41;;;8.69;88.89
22649;BME280;11491;41.942;24.220;2023-05-07T00:55:15;90182.78;;;8.78;88.43
22649;BME280;11491;41.942;24.220;2023-05-07T00:57:44;90178.56;;;8.77;88.27
22649;BME280;11491;41.942;24.220;2023-05-07T01:00:12;90184.53;;;8.74;89.20
22649;BME280;11491;41.942;24.220;2023-05-07T01:02:39;90196.25;;;8.61;89.06
22649;BME280;11491;41.942;24.220;2023-05-07T01:05:08;90193.28;;;8.24;90.99
22649;BME280;11491;41.942;24.220;2023-05-07T01:07:36;90196.69;;;8.33;91.86
22649;BME280;11491;41.942;24.220;2023-05-07T01:10:04;90192.56;;;8.45;92.14
22649;BME280;11491;41.942;24.220;2023-05-07T01:12:32;90192.66;;;8.57;91.00
22649;BME280;11491;41.942;24.220;2023-05-07T01:15:01;90197.00;;;8.61;90.36
22649;BME280;11491;41.942;24.220;2023-05-07T01:17:28;90190.25;;;8.64;90.84
22649;BME280;11491;41.942;24.220;2023-05-07T01:19:55;90193.78;;;8.77;90.37
22649;BME280;11491;41.942;24.220;2023-05-07T01:22:30;90180.91;;;8.58;91.31
22649;BME280;11491;41.942;24.220;2023-05-07T01:24:57;90187.28;;;8.87;90.15
22649;BME280;11491;41.942;24.220;2023-05-07T01:27:27;90189.03;;;8.82;90.14
22649;BME280;11491;41.942;24.220;2023-05-07T01:29:54;90183.13;;;8.98;89.72
22649;BME280;11491;41.942;24.220;2023-05-07T01:32:24;90184.66;;;8.99;88.93
22649;BME280;11491;41.942;24.220;2023-05-07T01:34:54;90180.25;;;9.03;88.48
22649;BME280;11491;41.942;24.220;2023-05-07T01:37:22;90188.50;;;9.10;88.57
22649;BME280;11491;41.942;24.220;2023-05-07T01:39:50;90192.72;;;9.11;88.18
22649;BME280;11491;41.942;24.220;2023-05-07T01:42:17;90182.19;;;9.15;87.57
22649;BME280;11491;41.942;24.220;2023-05-07T01:44:44;90181.69;;;9.00;88.25
22649;BME280;11491;41.942;24.220;2023-05-07T01:47:11;90181.69;;;9.00;88.38
22649;BME280;11491;41.942;24.220;2023-05-07T01:49:39;90186.75;;;9.14;88.53
22649;BME280;11491;41.942;24.220;2023-05-07T01:52:06;90182.06;;;9.11;88.50
22649;BME280;11491;41.942;24.220;2023-05-07T01:54:33;90185.38;;;9.08;89.46
22649;BME280;11491;41.942;24.220;2023-05-07T01:57:01;90182.97;;;9.15;89.33
22649;BME280;11491;41.942;24.220;2023-05-07T01:59:28;90181.78;;;9.25;88.34
22649;BME280;11491;41.942;24.220;2023-05-07T02:01:55;90172.72;;;9.05;89.00
22649;BME280;11491;41.942;24.220;2023-05-07T02:04:21;90169.59;;;9.03;89.65
22649;BME280;11491;41.942;24.220;2023-05-07T02:06:48;90155.72;;;8.89;90.02
22649;BME280;11491;41.942;24.220;2023-05-07T02:09:15;90163.06;;;8.92;90.54
22649;BME280;11491;41.942;24.220;2023-05-07T02:11:42;90164.44;;;8.98;90.53
22649;BME280;11491;41.942;24.220;2023-05-07T02:14:10;90163.22;;;8.95;90.74
22649;BME280;11491;41.942;24.220;2023-05-07T02:16:37;90163.06;;;8.92;90.86
22649;BME280;11491;41.942;24.220;2023-05-07T02:19:03;90163.72;;;8.89;91.17
22649;BME280;11491;41.942;24.220;2023-05-07T02:21:30;90159.56;;;9.00;91.57
22649;BME280;11491;41.942;24.220;2023-05-07T02:23:57;90164.97;;;9.12;91.04
22649;BME280;11491;41.942;24.220;2023-05-07T02:26:24;90166.09;;;9.23;90.77
22649;BME280;11491;41.942;24.220;2023-05-07T02:28:51;90165.25;;;9.32;89.85
22649;BME280;11491;41.942;24.220;2023-05-07T02:31:20;90159.25;;;9.35;89.43
22649;BME280;11491;41.942;24.220;2023-05-07T02:33:47;90154.97;;;9.21;89.30
22649;BME280;11491;41.942;24.220;2023-05-07T02:36:13;90159.00;;;9.27;90.03
22649;BME280;11491;41.942;24.220;2023-05-07T02:38:40;90159.00;;;9.27;90.18
22649;BME280;11491;41.942;24.220;2023-05-07T02:41:07;90144.53;;;9.28;89.89
22649;BME280;11491;41.942;24.220;2023-05-07T02:43:34;90150.13;;;9.36;89.53
22649;BME280;11491;41.942;24.220;2023-05-07T02:46:01;90145.47;;;9.33;89.25
22649;BME280;11491;41.942;24.220;2023-05-07T02:48:30;90144.53;;;9.28;88.89
22649;BME280;11491;41.942;24.220;2023-05-07T02:50:57;90142.53;;;9.25;88.38
22649;BME280;11491;41.942;24.220;2023-05-07T02:53:24;90140.41;;;9.19;88.36
22649;BME280;11491;41.942;24.220;2023-05-07T02:55:52;90138.41;;;9.16;88.01
22649;BME280;11491;41.942;24.220;2023-05-07T02:58:19;90145.38;;;9.08;87.58
22649;BME280;11491;41.942;24.220;2023-05-07T03:00:46;90148.00;;;8.96;87.38
22649;BME280;11491;41.942;24.220;2023-05-07T03:03:13;90138.66;;;8.90;87.51
22649;BME280;11491;41.942;24.220;2023-05-07T03:05:41;90138.84;;;8.84;86.63
22649;BME280;11491;41.942;24.220;2023-05-07T03:08:08;90136.44;;;8.50;87.41
22649;BME280;11491;41.942;24.220;2023-05-07T03:10:35;90143.88;;;8.35;88.61
22649;BME280;11491;41.942;24.220;2023-05-07T03:13:02;90139.63;;;8.34;88.92
22649;BME280;11491;41.942;24.220;2023-05-07T03:15:29;90142.50;;;8.29;89.20
22649;BME280;11491;41.942;24.220;2023-05-07T03:17:56;90142.50;;;8.29;88.34
22649;BME280;11491;41.942;24.220;2023-05-07T03:20:23;90143.97;;;8.18;88.56
22649;BME280;11491;41.942;24.220;2023-05-07T03:22:52;90141.31;;;8.18;88.84
22649;BME280;11491;41.942;24.220;2023-05-07T03:25:18;90146.84;;;8.13;88.84
22649;BME280;11491;41.942;24.220;2023-05-07T03:27:45;90110.28;;;7.92;88.47
22649;BME280;11491;41.942;24.220;2023-05-07T03:30:12;90143.53;;;8.16;87.79
22649;BME280;11491;41.942;24.220;2023-05-07T03:32:39;90148.28;;;8.02;88.25
22649;BME280;11491;41.942;24.220;2023-05-07T03:35:06;90144.88;;;7.92;89.07
22649;BME280;11491;41.942;24.220;2023-05-07T03:37:33;90153.34;;;7.94;89.35
22649;BME280;11491;41.942;24.220;2023-05-07T03:40:01;90148.66;;;7.91;89.46
22649;BME280;11491;41.942;24.220;2023-05-07T03:42:30;90151.69;;;7.81;89.74
22649;BME280;11491;41.942;24.220;2023-05-07T03:44:57;90153.56;;;7.81;90.02
22649;BME280;11491;41.942;24.220;2023-05-07T03:47:24;90153.97;;;7.91;89.66
22649;BME280;11491;41.942;24.220;2023-05-07T03:49:50;90160.56;;;7.94;88.96
22649;BME280;11491;41.942;24.220;2023-05-07T03:52:19;90159.81;;;7.85;89.50
22649;BME280;11491;41.942;24.220;2023-05-07T03:54:49;90145.91;;;7.79;89.69
22649;BME280;11491;41.942;24.220;2023-05-07T03:57:18;90158.59;;;7.73;89.99
22649;BME280;11491;41.942;24.220;2023-05-07T03:59:44;90158.56;;;7.82;90.18
22649;BME280;11491;41.942;24.220;2023-05-07T04:02:11;90139.31;;;7.85;90.15
22649;BME280;11491;41.942;24.220;2023-05-07T04:04:38;90146.94;;;7.95;89.58
22649;BME280;11491;41.942;24.220;2023-05-07T04:07:04;90113.94;;;7.79;89.60
22649;BME280;11491;41.942;24.220;2023-05-07T04:09:32;90154.72;;;8.01;89.83
22649;BME280;11491;41.942;24.220;2023-05-07T04:11:59;90146.75;;;8.01;90.67
22649;BME280;11491;41.942;24.220;2023-05-07T04:14:28;90143.91;;;8.06;91.10
22649;BME280;11491;41.942;24.220;2023-05-07T04:16:55;90143.53;;;8.16;90.78
22649;BME280;11491;41.942;24.220;2023-05-07T04:19:22;90153.78;;;8.26;89.87
22649;BME280;11491;41.942;24.220;2023-05-07T04:21:49;90146.56;;;8.27;89.84
22649;BME280;11491;41.942;24.220;2023-05-07T04:24:16;90147.19;;;8.32;90.08
22649;BME280;11491;41.942;24.220;2023-05-07T04:26:42;90145.13;;;8.38;90.24
22649;BME280;11491;41.942;24.220;2023-05-07T04:29:09;90151.13;;;8.56;90.07
22649;BME280;11491;41.942;24.220;2023-05-07T04:31:41;90151.41;;;8.63;89.72
22649;BME280;11491;41.942;24.220;2023-05-07T04:34:09;90154.78;;;8.72;90.77
22649;BME280;11491;41.942;24.220;2023-05-07T04:36:37;90153.47;;;8.78;91.35
22649;BME280;11491;41.942;24.220;2023-05-07T04:39:04;90153.47;;;8.78;91.75
22649;BME280;11491;41.942;24.220;2023-05-07T04:41:30;90149.16;;;8.86;91.50
22649;BME280;11491;41.942;24.220;2023-05-07T04:43:57;90153.84;;;9.10;91.04
22649;BME280;11491;41.942;24.220;2023-05-07T04:46:24;90157.84;;;9.16;91.05
22649;BME280;11491;41.942;24.220;2023-05-07T04:48:52;90162.38;;;9.37;91.08
22649;BME280;11491;41.942;24.220;2023-05-07T04:51:19;90132.00;;;9.41;90.26
22649;BME280;11491;41.942;24.220;2023-05-07T04:53:46;90160.91;;;9.73;89.62
22649;BME280;11491;41.942;24.220;2023-05-07T04:56:12;90154.91;;;9.88;88.76
22649;BME280;11491;41.942;24.220;2023-05-07T04:58:39;90156.69;;;9.96;87.77
22649;BME280;11491;41.942;24.220;2023-05-07T05:01:09;90175.63;;;10.16;87.38
22649;BME280;11491;41.942;24.220;2023-05-07T05:03:36;90146.69;;;10.18;86.45
22649;BME280;11491;41.942;24.220;2023-05-07T05:13:06;90108.81;;;10.52;83.19
22649;BME280;11491;41.942;24.220;2023-05-07T05:15:42;90151.63;;;10.81;83.36
22649;BME280;11491;41.942;24.220;2023-05-07T05:18:08;90165.97;;;11.01;84.02
22649;BME280;11491;41.942;24.220;2023-05-07T05:20:35;90108.34;;;10.63;83.15
22649;BME280;11491;41.942;24.220;2023-05-07T05:23:02;90131.66;;;10.90;82.81
22649;BME280;11491;41.942;24.220;2023-05-07T05:25:29;90142.72;;;11.17;82.82
22649;BME280;11491;41.942;24.220;2023-05-07T05:27:56;90075.41;;;10.87;82.54
22649;BME280;11491;41.942;24.220;2023-05-07T05:30:24;90088.63;;;11.24;80.47
22649;BME280;11491;41.942;24.220;2023-05-07T05:32:51;90156.66;;;11.82;77.93
22649;BME280;11491;41.942;24.220;2023-05-07T05:35:18;90158.19;;;11.96;78.85
22649;BME280;11491;41.942;24.220;2023-05-07T05:37:44;90158.13;;;12.08;78.94
22649;BME280;11491;41.942;24.220;2023-05-07T05:40:12;90139.69;;;12.22;78.46
22649;BME280;11491;41.942;24.220;2023-05-07T05:42:38;90110.88;;;12.19;78.10
22649;BME280;11491;41.942;24.220;2023-05-07T05:45:06;90162.72;;;12.75;77.70
22649;BME280;11491;41.942;24.220;2023-05-07T05:47:35;90161.25;;;12.97;77.30
22649;BME280;11491;41.942;24.220;2023-05-07T05:50:06;90160.34;;;13.08;78.38
22649;BME280;11491;41.942;24.220;2023-05-07T05:52:33;90166.63;;;13.32;76.85
22649;BME280;11491;41.942;24.220;2023-05-07T05:54:59;90161.94;;;13.48;76.82
22649;BME280;11491;41.942;24.220;2023-05-07T05:57:26;90167.53;;;13.59;74.54
22649;BME280;11491;41.942;24.220;2023-05-07T05:59:53;90161.09;;;13.64;73.22
22649;BME280;11491;41.942;24.220;2023-05-07T06:02:20;90156.84;;;13.63;74.35
22649;BME280;11491;41.942;24.220;2023-05-07T06:04:48;90162.38;;;13.70;73.27
22649;BME280;11491;41.942;24.220;2023-05-07T06:07:15;90161.09;;;13.64;73.56
22649;BME280;11491;41.942;24.220;2023-05-07T06:09:42;90165.22;;;13.57;73.71
22649;BME280;11491;41.942;24.220;2023-05-07T06:12:08;90157.09;;;13.54;72.65
22649;BME280;11491;41.942;24.220;2023-05-07T06:14:35;90154.19;;;13.43;73.51
22649;BME280;11491;41.942;24.220;2023-05-07T06:17:02;90158.16;;;13.49;74.16
22649;BME280;11491;41.942;24.220;2023-05-07T06:19:28;90157.72;;;13.67;73.26
22649;BME280;11491;41.942;24.220;2023-05-07T06:21:57;90162.22;;;13.63;72.03
22649;BME280;11491;41.942;24.220;2023-05-07T06:24:26;90159.38;;;13.75;70.94
22649;BME280;11491;41.942;24.220;2023-05-07T06:26:53;90161.31;;;13.97;70.54
22649;BME280;11491;41.942;24.220;2023-05-07T06:29:20;90151.47;;;13.82;68.69
22649;BME280;11491;41.942;24.220;2023-05-07T06:31:47;90161.44;;;14.05;68.78
22649;BME280;11491;41.942;24.220;2023-05-07T06:34:13;90163.25;;;14.20;67.42
22649;BME280;11491;41.942;24.220;2023-05-07T06:36:40;90162.59;;;14.27;67.56
22649;BME280;11491;41.942;24.220;2023-05-07T06:39:08;90169.78;;;14.19;67.05
22649;BME280;11491;41.942;24.220;2023-05-07T06:41:35;90136.72;;;13.95;69.05
22649;BME280;11491;41.942;24.220;2023-05-07T06:44:02;90167.72;;;14.12;68.20
22649;BME280;11491;41.942;24.220;2023-05-07T06:46:29;90122.63;;;13.79;67.47
22649;BME280;11491;41.942;24.220;2023-05-07T06:48:56;90168.75;;;14.27;68.72
22649;BME280;11491;41.942;24.220;2023-05-07T06:51:23;90173.53;;;14.37;66.44
22649;BME280;11491;41.942;24.220;2023-05-07T06:53:50;90114.72;;;14.13;62.97
22649;BME280;11491;41.942;24.220;2023-05-07T06:56:18;90165.25;;;14.50;63.95
22649;BME280;11491;41.942;24.220;2023-05-07T06:58:45;90167.59;;;14.51;65.60
22649;BME280;11491;41.942;24.220;2023-05-07T07:01:11;90167.91;;;14.69;67.00
22649;BME280;11491;41.942;24.220;2023-05-07T07:03:38;90164.78;;;14.67;63.62
22649;BME280;11491;41.942;24.220;2023-05-07T07:06:05;90161.19;;;14.56;62.15
22649;BME280;11491;41.942;24.220;2023-05-07T07:08:32;90168.00;;;14.76;65.47
22649;BME280;11491;41.942;24.220;2023-05-07T07:10:59;90165.63;;;14.98;64.76
22649;BME280;11491;41.942;24.220;2023-05-07T07:13:28;90164.06;;;15.23;63.03
22649;BME280;11491;41.942;24.220;2023-05-07T07:15:54;90159.56;;;15.35;62.39
22649;BME280;11491;41.942;24.220;2023-05-07T07:18:21;90166.63;;;15.43;62.06
22649;BME280;11491;41.942;24.220;2023-05-07T07:20:48;90162.75;;;15.44;60.08
22649;BME280;11491;41.942;24.220;2023-05-07T07:23:15;90156.59;;;15.43;63.61
22649;BME280;11491;41.942;24.220;2023-05-07T07:25:41;90161.53;;;15.68;61.91
22649;BME280;11491;41.942;24.220;2023-05-07T07:28:08;90165.63;;;15.92;60.61
22649;BME280;11491;41.942;24.220;2023-05-07T07:30:37;90162.00;;;16.14;62.86
22649;BME280;11491;41.942;24.220;2023-05-07T07:33:04;90153.59;;;16.20;57.80
22649;BME280;11491;41.942;24.220;2023-05-07T07:35:31;90120.22;;;15.94;56.35
22649;BME280;11491;41.942;24.220;2023-05-07T07:37:58;90123.41;;;16.03;54.23
22649;BME280;11491;41.942;24.220;2023-05-07T07:40:25;90162.16;;;16.29;53.63
22649;BME280;11491;41.942;24.220;2023-05-07T07:42:52;90121.28;;;16.27;52.19
22649;BME280;11491;41.942;24.220;2023-05-07T07:45:20;90172.25;;;16.80;49.51
22649;BME280;11491;41.942;24.220;2023-05-07T07:47:48;90173.53;;;16.97;47.17
22649;BME280;11491;41.942;24.220;2023-05-07T07:50:14;90157.00;;;17.02;50.39
22649;BME280;11491;41.942;24.220;2023-05-07T07:52:41;90173.81;;;17.43;48.21
22649;BME280;11491;41.942;24.220;2023-05-07T07:55:08;90167.72;;;17.61;48.92
22649;BME280;11491;41.942;24.220;2023-05-07T07:57:35;90172.13;;;17.94;45.82
22649;BME280;11491;41.942;24.220;2023-05-07T08:00:03;90176.03;;;18.18;46.04
22649;BME280;11491;41.942;24.220;2023-05-07T08:02:31;90178.00;;;18.21;43.60
22649;BME280;11491;41.942;24.220;2023-05-07T08:04:59;90183.06;;;18.41;47.11
22649;BME280;11491;41.942;24.220;2023-05-07T08:07:26;90179.59;;;18.47;48.60
22649;BME280;11491;41.942;24.220;2023-05-07T08:09:53;90176.91;;;18.72;47.98
22649;BME280;11491;41.942;24.220;2023-05-07T08:12:20;90150.25;;;18.82;48.64
22649;BME280;11491;41.942;24.220;2023-05-07T08:14:46;90176.56;;;18.88;47.25
22649;BME280;11491;41.942;24.220;2023-05-07T08:17:13;90179.66;;;18.80;44.33
22649;BME280;11491;41.942;24.220;2023-05-07T08:19:41;90181.59;;;18.79;46.75
22649;BME280;11491;41.942;24.220;2023-05-07T08:22:09;90175.78;;;19.13;49.08
22649;BME280;11491;41.942;24.220;2023-05-07T08:24:37;90155.28;;;19.01;45.86
22649;BME280;11491;41.942;24.220;2023-05-07T08:27:03;90176.53;;;19.21;43.40
22649;BME280;11491;41.942;24.220;2023-05-07T08:29:30;90171.88;;;19.32;46.12
22649;BME280;11491;41.942;24.220;2023-05-07T08:31:57;90168.72;;;19.51;43.88
22649;BME280;11491;41.942;24.220;2023-05-07T08:34:24;90173.44;;;19.26;42.54
22649;BME280;11491;41.942;24.220;2023-05-07T08:36:50;90174.19;;;19.23;45.70
22649;BME280;11491;41.942;24.220;2023-05-07T08:39:18;90170.34;;;19.24;46.84
22649;BME280;11491;41.942;24.220;2023-05-07T08:41:45;90171.13;;;19.13;42.41
22649;BME280;11491;41.942;24.220;2023-05-07T08:44:13;90176.56;;;19.13;41.73
22649;BME280;11491;41.942;24.220;2023-05-07T08:46:41;90155.63;;;19.18;42.17
22649;BME280;11491;41.942;24.220;2023-05-07T08:49:08;90162.94;;;19.35;42.71
22649;BME280;11491;41.942;24.220;2023-05-07T08:51:35;90161.00;;;19.39;37.85
22649;BME280;11491;41.942;24.220;2023-05-07T08:54:02;90161.00;;;19.46;41.87
22649;BME280;11491;41.942;24.220;2023-05-07T08:56:31;90137.78;;;19.45;42.96
22649;BME280;11491;41.942;24.220;2023-05-07T08:58:58;90157.88;;;19.73;41.65
22649;BME280;11491;41.942;24.220;2023-05-07T09:01:25;90161.31;;;19.77;42.70
22649;BME280;11491;41.942;24.220;2023-05-07T09:03:53;90154.34;;;19.76;38.90
22649;BME280;11491;41.942;24.220;2023-05-07T09:06:19;90143.88;;;19.82;39.49
22649;BME280;11491;41.942;24.220;2023-05-07T09:08:50;90140.66;;;20.08;40.18
22649;BME280;11491;41.942;24.220;2023-05-07T09:11:20;90145.25;;;20.18;41.40
22649;BME280;11491;41.942;24.220;2023-05-07T09:13:49;90161.56;;;20.15;40.89
22649;BME280;11491;41.942;24.220;2023-05-07T09:16:16;90151.00;;;20.31;42.89
22649;BME280;11491;41.942;24.220;2023-05-07T09:18:43;90163.50;;;20.84;40.83
22649;BME280;11491;41.942;24.220;2023-05-07T09:21:10;90160.34;;;20.86;38.13
22649;BME280;11491;41.942;24.220;2023-05-07T09:23:38;90159.78;;;21.09;40.60
22649;BME280;11491;41.942;24.220;2023-05-07T09:26:05;90166.59;;;21.32;40.60
22649;BME280;11491;41.942;24.220;2023-05-07T09:28:38;90149.03;;;21.36;41.70
22649;BME280;11491;41.942;24.220;2023-05-07T09:31:07;90151.19;;;21.59;40.62
22649;BME280;11491;41.942;24.220;2023-05-07T09:33:34;90134.28;;;21.41;40.55
22649;BME280;11491;41.942;24.220;2023-05-07T09:36:04;90156.63;;;21.59;40.61
22649;BME280;11491;41.942;24.220;2023-05-07T09:38:32;90154.25;;;21.61;40.17
22649;BME280;11491;41.942;24.220;2023-05-07T09:41:02;90152.78;;;21.53;40.38
22649;BME280;11491;41.942;24.220;2023-05-07T09:43:32;90149.63;;;21.62;40.97
22649;BME280;11491;41.942;24.220;2023-05-07T09:46:02;90148.78;;;21.65;38.51
22649;BME280;11491;41.942;24.220;2023-05-07T09:48:32;90156.13;;;21.71;39.52
22649;BME280;11491;41.942;24.220;2023-05-07T09:51:01;90118.03;;;21.30;40.56
22649;BME280;11491;41.942;24.220;2023-05-07T09:53:29;90148.19;;;21.05;40.36
22649;BME280;11491;41.942;24.220;2023-05-07T09:55:57;90154.84;;;20.97;39.93
22649;BME280;11491;41.942;24.220;2023-05-07T09:58:25;90160.97;;;21.08;42.93
22649;BME280;11491;41.942;24.220;2023-05-07T10:00:52;90151.56;;;21.16;42.80
22649;BME280;11491;41.942;24.220;2023-05-07T10:03:20;90153.31;;;21.41;42.40
22649;BME280;11491;41.942;24.220;2023-05-07T10:05:50;90147.41;;;21.49;41.84
22649;BME280;11491;41.942;24.220;2023-05-07T10:08:17;90140.78;;;21.50;45.80
22649;BME280;11491;41.942;24.220;2023-05-07T10:10:45;90143.63;;;21.40;43.35
22649;BME280;11491;41.942;24.220;2023-05-07T10:13:12;90148.25;;;21.43;44.35
22649;BME280;11491;41.942;24.220;2023-05-07T10:15:39;90146.88;;;21.20;38.95
22649;BME280;11491;41.942;24.220;2023-05-07T10:18:08;90143.13;;;21.03;44.14
22649;BME280;11491;41.942;24.220;2023-05-07T10:20:36;90145.28;;;21.23;42.52
22649;BME280;11491;41.942;24.220;2023-05-07T10:23:05;90137.84;;;21.30;41.56
22649;BME280;11491;41.942;24.220;2023-05-07T10:25:32;90136.63;;;21.39;41.53
22649;BME280;11491;41.942;24.220;2023-05-07T10:28:02;90133.03;;;21.49;42.93
22649;BME280;11491;41.942;24.220;2023-05-07T10:30:39;90146.16;;;21.58;42.71
22649;BME280;11491;41.942;24.220;2023-05-07T10:33:15;90130.41;;;21.42;40.54
22649;BME280;11491;41.942;24.220;2023-05-07T10:35:45;90131.25;;;21.32;40.57
22649;BME280;11491;41.942;24.220;2023-05-07T10:38:14;90110.28;;;21.28;40.87
22649;BME280;11491;41.942;24.220;2023-05-07T10:40:42;90117.66;;;21.69;40.93
22649;BME280;11491;41.942;24.220;2023-05-07T10:43:09;90120.00;;;21.67;40.82
22649;BME280;11491;41.942;24.220;2023-05-07T10:45:36;90121.09;;;21.36;39.25
22649;BME280;11491;41.942;24.220;2023-05-07T10:48:10;90126.66;;;21.21;40.74
22649;BME280;11491;41.942;24.220;2023-05-07T10:50:37;90117.28;;;21.29;40.81
22649;BME280;11491;41.942;24.220;2023-05-07T10:53:25;90121.38;;;21.83;40.85
22649;BME280;11491;41.942;24.220;2023-05-07T10:56:26;90111.06;;;22.01;40.33
22649;BME280;11491;41.942;24.220;2023-05-07T10:58:53;90116.25;;;22.23;39.24
22649;BME280;11491;41.942;24.220;2023-05-07T11:01:49;90109.22;;;22.25;38.76
22649;BME280;11491;41.942;24.220;2023-05-07T11:04:17;90103.81;;;22.22;41.29
22649;BME280;11491;41.942;24.220;2023-05-07T11:09:58;90114.66;;;22.25;37.74
22649;BME280;11491;41.942;24.220;2023-05-07T11:12:47;90111.16;;;22.25;40.23
22649;BME280;11491;41.942;24.220;2023-05-07T11:15:14;90111.56;;;22.50;38.42
22649;BME280;11491;41.942;24.220;2023-05-07T11:17:52;90114.25;;;22.81;38.06
22649;BME280;11491;41.942;24.220;2023-05-07T11:20:19;90112.94;;;22.89;37.86
22649;BME280;11491;41.942;24.220;2023-05-07T11:22:46;90107.31;;;23.04;38.81
22649;BME280;11491;41.942;24.220;2023-05-07T11:25:18;90117.38;;;23.07;35.70
22649;BME280;11491;41.942;24.220;2023-05-07T11:27:45;90117.94;;;22.94;37.08
22649;BME280;11491;41.942;24.220;2023-05-07T11:30:17;90110.50;;;22.98;39.10
22649;BME280;11491;41.942;24.220;2023-05-07T11:32:47;90111.53;;;22.81;36.87
22649;BME280;11491;41.942;24.220;2023-05-07T11:35:15;90109.97;;;22.53;37.90
22649;BME280;11491;41.942;24.220;2023-05-07T11:37:42;90104.19;;;22.51;38.33
22649;BME280;11491;41.942;24.220;2023-05-07T11:40:12;90105.81;;;22.99;37.42
22649;BME280;11491;41.942;24.220;2023-05-07T11:42:40;90109.41;;;23.39;38.02
22649;BME280;11491;41.942;24.220;2023-05-07T11:45:08;90105.50;;;23.17;36.37
22649;BME280;11491;41.942;24.220;2023-05-07T11:47:35;90088.66;;;22.48;37.78
22649;BME280;11491;41.942;24.220;2023-05-07T11:50:07;90107.81;;;22.68;37.51
22649;BME280;11491;41.942;24.220;2023-05-07T11:52:35;90105.41;;;23.00;37.51
22649;BME280;11491;41.942;24.220;2023-05-07T11:55:06;90101.38;;;23.09;39.18
22649;BME280;11491;41.942;24.220;2023-05-07T11:57:33;90105.88;;;23.19;37.07
22649;BME280;11491;41.942;24.220;2023-05-07T12:00:05;90103.41;;;23.48;39.66
22649;BME280;11491;41.942;24.220;2023-05-07T12:02:32;90095.47;;;23.77;36.21
22649;BME280;11491;41.942;24.220;2023-05-07T12:05:00;90090.19;;;23.47;37.43
22649;BME280;11491;41.942;24.220;2023-05-07T12:07:27;90088.31;;;23.20;37.25
22649;BME280;11491;41.942;24.220;2023-05-07T12:09:55;90087.84;;;23.45;35.75
22649;BME280;11491;41.942;24.220;2023-05-07T12:12:21;90085.31;;;23.58;37.49
22649;BME280;11491;41.942;24.220;2023-05-07T12:14:48;90088.97;;;23.48;37.01
22649;BME280;11491;41.942;24.220;2023-05-07T12:17:16;90091.44;;;23.62;38.23
22649;BME280;11491;41.942;24.220;2023-05-07T12:19:44;90085.31;;;23.58;38.23
22649;BME280;11491;41.942;24.220;2023-05-07T12:22:12;90079.13;;;23.54;38.00
22649;BME280;11491;41.942;24.220;2023-05-07T12:24:44;90086.84;;;23.59;35.98
22649;BME280;11491;41.942;24.220;2023-05-07T12:27:11;90091.56;;;23.35;37.63
22649;BME280;11491;41.942;24.220;2023-05-07T12:29:38;90076.31;;;23.37;36.92
22649;BME280;11491;41.942;24.220;2023-05-07T12:32:06;90043.88;;;23.23;35.84
22649;BME280;11491;41.942;24.220;2023-05-07T12:34:34;90077.75;;;23.22;36.65
22649;BME280;11491;41.942;24.220;2023-05-07T12:37:01;90084.97;;;23.32;37.24
22649;BME280;11491;41.942;24.220;2023-05-07T12:39:29;90072.59;;;23.28;36.24
22649;BME280;11491;41.942;24.220;2023-05-07T12:41:57;90079.66;;;23.25;38.99
22649;BME280;11491;41.942;24.220;2023-05-07T12:44:25;90066.00;;;23.49;37.89
22649;BME280;11491;41.942;24.220;2023-05-07T12:46:55;90047.50;;;23.36;38.03
22649;BME280;11491;41.942;24.220;2023-05-07T12:49:22;90062.91;;;23.47;36.42
22649;BME280;11491;41.942;24.220;2023-05-07T12:51:51;90054.00;;;23.42;37.39
22649;BME280;11491;41.942;24.220;2023-05-07T12:54:29;90061.44;;;24.02;36.92
22649;BME280;11491;41.942;24.220;2023-05-07T12:57:01;90056.25;;;24.44;36.64
22649;BME280;11491;41.942;24.220;2023-05-07T12:59:31;90051.06;;;24.13;36.49
22649;BME280;11491;41.942;24.220;2023-05-07T13:01:58;90055.53;;;24.23;36.15
22649;BME280;11491;41.942;24.220;2023-05-07T13:04:25;90051.16;;;23.90;36.39
22649;BME280;11491;41.942;24.220;2023-05-07T13:06:53;90051.50;;;23.72;35.75
22649;BME280;11491;41.942;24.220;2023-05-07T13:09:20;90052.38;;;23.25;34.15